sensor_id;sensor_type;location;lat;lon;timestamp;temperature;humidity
17715;DHT22;8977;50.902;4.314;2023-02-12T00:00:21;10.40;99.90
17715;DHT22;8977;50.902;4.314;2023-02-12T00:02:48;10.40;99.90
17715;DHT22;8977;50.902;4.314;2023-02-12T00:05:16;10.40;99.90
17715;DHT22;8977;50.902;4.314;2023-02-12T00:07:43;10.40;99.90
17715;DHT22;8977;50.902;4.314;2023-02-12T00:10:10;10.40;99.90
17715;DHT22;8977;50.902;4.314;2023-02-12T00:12:38;10.40;99.90
17715;DHT22;8977;50.902;4.314;2023-02-12T00:15:05;10.40;99.90
17715;DHT22;8977;50.902;4.314;2023-02-12T00:17:33;10.40;99.90
17715;DHT22;8977;50.902;4.314;2023-02-12T00:20:00;10.40;99.90
17715;DHT22;8977;50.902;4.314;2023-02-12T00:22:29;10.40;99.90
17715;DHT22;8977;50.902;4.314;2023-02-12T00:24:56;10.40;99.90
17715;DHT22;8977;50.902;4.314;2023-02-12T00:27:23;10.40;99.90
17715;DHT22;8977;50.902;4.314;2023-02-12T00:29:50;10.40;99.90
17715;DHT22;8977;50.902;4.314;2023-02-12T00:32:17;10.40;99.90
17715;DHT22;8977;50.902;4.314;2023-02-12T00:34:45;10.40;99.90
17715;DHT22;8977;50.902;4.314;2023-02-12T00:37:12;10.40;99.90
17715;DHT22;8977;50.902;4.314;2023-02-12T00:39:41;10.40;99.90
17715;DHT22;8977;50.902;4.314;2023-02-12T00:42:08;10.40;99.90
17715;DHT22;8977;50.902;4.314;2023-02-12T00:44:35;10.30;99.90
17715;DHT22;8977;50.902;4.314;2023-02-12T00:47:02;10.30;99.90
17715;DHT22;8977;50.902;4.314;2023-02-12T00:49:30;10.30;99.90
17715;DHT22;8977;50.902;4.314;2023-02-12T00:51:58;10.30;99.90
17715;DHT22;8977;50.902;4.314;2023-02-12T00:54:25;10.30;99.90
17715;DHT22;8977;50.902;4.314;2023-02-12T00:56:54;10.30;99.90
17715;DHT22;8977;50.902;4.314;2023-02-12T00:59:21;10.30;99.90
17715;DHT22;8977;50.902;4.314;2023-02-12T01:01:49;10.30;99.90
17715;DHT22;8977;50.902;4.314;2023-02-12T01:04:16;10.30;99.90
17715;DHT22;8977;50.902;4.314;2023-02-12T01:06:43;10.30;99.90
17715;DHT22;8977;50.902;4.314;2023-02-12T01:09:10;10.30;99.90
17715;DHT22;8977;50.902;4.314;2023-02-12T01:11:37;10.30;99.90
17715;DHT22;8977;50.902;4.314;2023-02-12T01:14:06;10.30;99.90
17715;DHT22;8977;50.902;4.314;2023-02-12T01:16:33;10.30;99.90
17715;DHT22;8977;50.902;4.314;2023-02-12T01:19:02;10.30;99.90
17715;DHT22;8977;50.902;4.314;2023-02-12T01:21:32;10.30;99.90
17715;DHT22;8977;50.902;4.314;2023-02-12T01:24:01;10.30;99.90
17715;DHT22;8977;50.902;4.314;2023-02-12T01:26:29;10.30;99.90
17715;DHT22;8977;50.902;4.314;2023-02-12T01:28:58;10.20;99.90
17715;DHT22;8977;50.902;4.314;2023-02-12T01:31:28;10.30;99.90
17715;DHT22;8977;50.902;4.314;2023-02-12T01:33:57;10.30;99.90
17715;DHT22;8977;50.902;4.314;2023-02-12T01:36:24;10.30;99.90
17715;DHT22;8977;50.902;4.314;2023-02-12T01:38:51;10.30;99.90
17715;DHT22;8977;50.902;4.314;2023-02-12T01:41:21;10.30;99.90
17715;DHT22;8977;50.902;4.314;2023-02-12T01:44:07;10.30;99.90
17715;DHT22;8977;50.902;4.314;2023-02-12T01:46:36;10.30;99.90
17715;DHT22;8977;50.902;4.314;2023-02-12T01:49:07;10.30;99.90
17715;DHT22;8977;50.902;4.314;2023-02-12T01:51:35;10.30;99.90
17715;DHT22;8977;50.902;4.314;2023-02-12T01:54:05;10.30;99.90
17715;DHT22;8977;50.902;4.314;2023-02-12T01:56:33;10.30;99.90
17715;DHT22;8977;50.902;4.314;2023-02-12T01:59:01;10.30;99.90
17715;DHT22;8977;50.902;4.314;2023-02-12T02:01:29;10.30;99.90
17715;DHT22;8977;50.902;4.314;2023-02-12T02:04:01;10.30;99.90
17715;DHT22;8977;50.902;4.314;2023-02-12T02:06:32;10.30;99.90
17715;DHT22;8977;50.902;4.314;2023-02-12T02:09:00;10.30;99.90
17715;DHT22;8977;50.902;4.314;2023-02-12T02:11:27;10.30;99.90
17715;DHT22;8977;50.902;4.314;2023-02-12T02:14:12;10.30;99.90
17715;DHT22;8977;50.902;4.314;2023-02-12T02:26:08;10.20;99.90
17715;DHT22;8977;50.902;4.314;2023-02-12T02:31:37;10.20;99.90
17715;DHT22;8977;50.902;4.314;2023-02-12T02:34:10;10.20;99.90
17715;DHT22;8977;50.902;4.314;2023-02-12T02:36:44;10.20;99.90
17715;DHT22;8977;50.902;4.314;2023-02-12T02:39:16;10.20;99.90
17715;DHT22;8977;50.902;4.314;2023-02-12T02:41:50;10.20;99.90
17715;DHT22;8977;50.902;4.314;2023-02-12T02:44:22;10.20;99.90
17715;DHT22;8977;50.902;4.314;2023-02-12T02:46:52;10.20;99.90
17715;DHT22;8977;50.902;4.314;2023-02-12T02:49:23;10.20;99.90
17715;DHT22;8977;50.902;4.314;2023-02-12T02:51:53;10.20;99.90
17715;DHT22;8977;50.902;4.314;2023-02-12T02:54:26;10.30;99.90
17715;DHT22;8977;50.902;4.314;2023-02-12T02:57:02;10.30;99.90
17715;DHT22;8977;50.902;4.314;2023-02-12T02:59:36;10.30;99.90
17715;DHT22;8977;50.902;4.314;2023-02-12T03:02:09;10.30;99.90
17715;DHT22;8977;50.902;4.314;2023-02-12T03:04:42;10.30;99.90
17715;DHT22;8977;50.902;4.314;2023-02-12T03:07:12;10.30;99.90
17715;DHT22;8977;50.902;4.314;2023-02-12T03:09:43;10.30;99.90
17715;DHT22;8977;50.902;4.314;2023-02-12T03:12:14;10.30;99.90
17715;DHT22;8977;50.902;4.314;2023-02-12T03:14:45;10.20;99.90
17715;DHT22;8977;50.902;4.314;2023-02-12T03:17:18;10.30;99.90
17715;DHT22;8977;50.902;4.314;2023-02-12T03:19:51;10.30;99.90
17715;DHT22;8977;50.902;4.314;2023-02-12T03:22:22;10.30;99.90
17715;DHT22;8977;50.902;4.314;2023-02-12T03:24:55;10.30;99.90
17715;DHT22;8977;50.902;4.314;2023-02-12T03:27:28;10.30;99.90
17715;DHT22;8977;50.902;4.314;2023-02-12T03:29:56;10.30;99.90
17715;DHT22;8977;50.902;4.314;2023-02-12T03:32:29;10.30;99.90
17715;DHT22;8977;50.902;4.314;2023-02-12T03:35:08;10.30;99.90
17715;DHT22;8977;50.902;4.314;2023-02-12T03:37:37;10.30;99.90
17715;DHT22;8977;50.902;4.314;2023-02-12T03:40:13;10.20;99.90
17715;DHT22;8977;50.902;4.314;2023-02-12T03:42:45;10.20;99.90
17715;DHT22;8977;50.902;4.314;2023-02-12T03:45:20;10.20;99.90
17715;DHT22;8977;50.902;4.314;2023-02-12T03:47:54;10.20;99.90
17715;DHT22;8977;50.902;4.314;2023-02-12T03:50:26;10.20;99.90
17715;DHT22;8977;50.902;4.314;2023-02-12T03:52:56;10.20;99.90
17715;DHT22;8977;50.902;4.314;2023-02-12T03:55:23;10.20;99.90
17715;DHT22;8977;50.902;4.314;2023-02-12T03:57:53;10.20;99.90
17715;DHT22;8977;50.902;4.314;2023-02-12T04:00:22;10.20;99.90
17715;DHT22;8977;50.902;4.314;2023-02-12T04:02:52;10.20;99.90
17715;DHT22;8977;50.902;4.314;2023-02-12T04:05:22;10.20;99.90
17715;DHT22;8977;50.902;4.314;2023-02-12T04:07:50;10.30;99.90
17715;DHT22;8977;50.902;4.314;2023-02-12T04:10:23;10.30;99.90
17715;DHT22;8977;50.902;4.314;2023-02-12T04:12:56;10.30;99.90
17715;DHT22;8977;50.902;4.314;2023-02-12T04:15:42;10.20;99.90
17715;DHT22;8977;50.902;4.314;2023-02-12T04:18:17;10.20;99.90
17715;DHT22;8977;50.902;4.314;2023-02-12T04:20:52;10.20;99.90
17715;DHT22;8977;50.902;4.314;2023-02-12T04:23:35;10.20;99.90
17715;DHT22;8977;50.902;4.314;2023-02-12T04:26:09;10.20;99.90
17715;DHT22;8977;50.902;4.314;2023-02-12T04:28:46;10.20;99.90
17715;DHT22;8977;50.902;4.314;2023-02-12T04:31:22;10.30;99.90
17715;DHT22;8977;50.902;4.314;2023-02-12T04:33:59;10.30;99.90
17715;DHT22;8977;50.902;4.314;2023-02-12T04:36:32;10.20;99.90
17715;DHT22;8977;50.902;4.314;2023-02-12T04:39:02;10.30;99.90
17715;DHT22;8977;50.902;4.314;2023-02-12T04:41:30;10.20;99.90
17715;DHT22;8977;50.902;4.314;2023-02-12T04:43:57;10.20;99.90
17715;DHT22;8977;50.902;4.314;2023-02-12T04:46:24;10.20;99.90
17715;DHT22;8977;50.902;4.314;2023-02-12T04:48:54;10.20;99.90
17715;DHT22;8977;50.902;4.314;2023-02-12T04:51:21;10.20;99.90
17715;DHT22;8977;50.902;4.314;2023-02-12T04:53:49;10.20;99.90
17715;DHT22;8977;50.902;4.314;2023-02-12T04:56:16;10.20;99.90
17715;DHT22;8977;50.902;4.314;2023-02-12T04:58:43;10.20;99.90
17715;DHT22;8977;50.902;4.314;2023-02-12T05:01:10;10.20;99.90
17715;DHT22;8977;50.902;4.314;2023-02-12T05:03:37;10.20;99.90
17715;DHT22;8977;50.902;4.314;2023-02-12T05:06:07;10.20;99.90
17715;DHT22;8977;50.902;4.314;2023-02-12T05:08:34;10.20;99.90
17715;DHT22;8977;50.902;4.314;2023-02-12T05:11:05;10.20;99.90
17715;DHT22;8977;50.902;4.314;2023-02-12T05:13:32;10.20;99.90
17715;DHT22;8977;50.902;4.314;2023-02-12T05:15:59;10.10;99.90
17715;DHT22;8977;50.902;4.314;2023-02-12T05:18:28;10.20;99.90
17715;DHT22;8977;50.902;4.314;2023-02-12T05:20:55;10.20;99.90
17715;DHT22;8977;50.902;4.314;2023-02-12T05:23:27;10.10;99.90
17715;DHT22;8977;50.902;4.314;2023-02-12T05:25:56;10.10;99.90
17715;DHT22;8977;50.902;4.314;2023-02-12T05:28:23;10.10;99.90
17715;DHT22;8977;50.902;4.314;2023-02-12T05:30:50;10.10;99.90
17715;DHT22;8977;50.902;4.314;2023-02-12T05:33:17;10.10;99.90
17715;DHT22;8977;50.902;4.314;2023-02-12T05:35:44;10.20;99.90
17715;DHT22;8977;50.902;4.314;2023-02-12T05:38:12;10.10;99.90
17715;DHT22;8977;50.902;4.314;2023-02-12T05:40:40;10.10;99.90
17715;DHT22;8977;50.902;4.314;2023-02-12T05:43:07;10.10;99.90
17715;DHT22;8977;50.902;4.314;2023-02-12T05:45:34;10.10;99.90
17715;DHT22;8977;50.902;4.314;2023-02-12T05:48:03;10.10;99.90
17715;DHT22;8977;50.902;4.314;2023-02-12T05:50:30;10.10;99.90
17715;DHT22;8977;50.902;4.314;2023-02-12T05:52:58;10.10;99.90
17715;DHT22;8977;50.902;4.314;2023-02-12T05:55:25;10.10;99.90
17715;DHT22;8977;50.902;4.314;2023-02-12T05:57:54;10.10;99.90
17715;DHT22;8977;50.902;4.314;2023-02-12T06:00:21;10.10;99.90
17715;DHT22;8977;50.902;4.314;2023-02-12T06:02:48;10.10;99.90
17715;DHT22;8977;50.902;4.314;2023-02-12T06:05:15;10.10;99.90
17715;DHT22;8977;50.902;4.314;2023-02-12T06:07:42;10.10;99.90
17715;DHT22;8977;50.902;4.314;2023-02-12T06:10:09;10.10;99.90
17715;DHT22;8977;50.902;4.314;2023-02-12T06:12:36;10.10;99.90
17715;DHT22;8977;50.902;4.314;2023-02-12T06:15:05;10.10;99.90
17715;DHT22;8977;50.902;4.314;2023-02-12T06:17:32;10.20;99.90
17715;DHT22;8977;50.902;4.314;2023-02-12T06:19:59;10.20;99.90
17715;DHT22;8977;50.902;4.314;2023-02-12T06:22:27;10.10;99.90
17715;DHT22;8977;50.902;4.314;2023-02-12T06:24:54;10.10;99.90
17715;DHT22;8977;50.902;4.314;2023-02-12T06:27:21;10.10;99.90
17715;DHT22;8977;50.902;4.314;2023-02-12T06:29:48;10.10;99.90
17715;DHT22;8977;50.902;4.314;2023-02-12T06:32:16;10.10;99.90
17715;DHT22;8977;50.902;4.314;2023-02-12T06:34:43;10.20;99.90
17715;DHT22;8977;50.902;4.314;2023-02-12T06:37:11;10.20;99.90
17715;DHT22;8977;50.902;4.314;2023-02-12T06:39:37;10.20;99.90
17715;DHT22;8977;50.902;4.314;2023-02-12T06:42:04;10.20;99.90
17715;DHT22;8977;50.902;4.314;2023-02-12T06:44:31;10.20;99.90
17715;DHT22;8977;50.902;4.314;2023-02-12T06:46:58;10.20;99.90
17715;DHT22;8977;50.902;4.314;2023-02-12T06:49:26;10.20;99.90
17715;DHT22;8977;50.902;4.314;2023-02-12T06:51:53;10.20;99.90
17715;DHT22;8977;50.902;4.314;2023-02-12T06:54:20;10.10;99.90
17715;DHT22;8977;50.902;4.314;2023-02-12T06:56:47;10.10;99.90
17715;DHT22;8977;50.902;4.314;2023-02-12T06:59:14;10.10;99.90
17715;DHT22;8977;50.902;4.314;2023-02-12T07:01:42;10.20;99.90
17715;DHT22;8977;50.902;4.314;2023-02-12T07:04:10;10.10;99.90
17715;DHT22;8977;50.902;4.314;2023-02-12T07:06:38;10.10;99.90
17715;DHT22;8977;50.902;4.314;2023-02-12T07:09:05;10.10;99.90
17715;DHT22;8977;50.902;4.314;2023-02-12T07:11:34;10.10;99.90
17715;DHT22;8977;50.902;4.314;2023-02-12T07:14:01;10.10;99.90
17715;DHT22;8977;50.902;4.314;2023-02-12T07:16:28;10.10;99.90
17715;DHT22;8977;50.902;4.314;2023-02-12T07:18:54;10.10;99.90
17715;DHT22;8977;50.902;4.314;2023-02-12T07:21:21;10.10;99.90
17715;DHT22;8977;50.902;4.314;2023-02-12T07:23:51;10.10;99.90
17715;DHT22;8977;50.902;4.314;2023-02-12T07:26:19;10.10;99.90
17715;DHT22;8977;50.902;4.314;2023-02-12T07:28:47;10.10;99.90
17715;DHT22;8977;50.902;4.314;2023-02-12T07:31:15;10.10;99.90
17715;DHT22;8977;50.902;4.314;2023-02-12T07:33:43;10.10;99.90
17715;DHT22;8977;50.902;4.314;2023-02-12T07:36:14;10.10;99.90
17715;DHT22;8977;50.902;4.314;2023-02-12T07:38:42;10.10;99.90
17715;DHT22;8977;50.902;4.314;2023-02-12T07:41:11;10.10;99.90
17715;DHT22;8977;50.902;4.314;2023-02-12T07:43:39;10.10;99.90
17715;DHT22;8977;50.902;4.314;2023-02-12T07:46:10;10.20;99.90
17715;DHT22;8977;50.902;4.314;2023-02-12T07:48:37;10.10;99.90
17715;DHT22;8977;50.902;4.314;2023-02-12T07:51:07;10.20;99.90
17715;DHT22;8977;50.902;4.314;2023-02-12T07:53:35;10.20;99.90
17715;DHT22;8977;50.902;4.314;2023-02-12T07:56:11;10.20;99.90
17715;DHT22;8977;50.902;4.314;2023-02-12T07:58:39;10.20;99.90
17715;DHT22;8977;50.902;4.314;2023-02-12T08:01:15;10.20;99.90
17715;DHT22;8977;50.902;4.314;2023-02-12T08:03:42;10.20;99.90
17715;DHT22;8977;50.902;4.314;2023-02-12T08:06:11;10.20;99.90
17715;DHT22;8977;50.902;4.314;2023-02-12T08:08:38;10.20;99.90
17715;DHT22;8977;50.902;4.314;2023-02-12T08:11:06;10.20;99.90
17715;DHT22;8977;50.902;4.314;2023-02-12T08:13:35;10.20;99.90
17715;DHT22;8977;50.902;4.314;2023-02-12T08:16:04;10.20;99.90
17715;DHT22;8977;50.902;4.314;2023-02-12T08:18:32;10.20;99.90
17715;DHT22;8977;50.902;4.314;2023-02-12T08:21:03;10.20;99.90
17715;DHT22;8977;50.902;4.314;2023-02-12T08:23:30;10.30;99.90
17715;DHT22;8977;50.902;4.314;2023-02-12T08:26:16;10.20;99.90
17715;DHT22;8977;50.902;4.314;2023-02-12T08:28:46;10.20;99.90
17715;DHT22;8977;50.902;4.314;2023-02-12T08:31:15;10.20;99.90
17715;DHT22;8977;50.902;4.314;2023-02-12T08:33:45;10.30;99.90
17715;DHT22;8977;50.902;4.314;2023-02-12T08:36:15;10.30;99.90
17715;DHT22;8977;50.902;4.314;2023-02-12T08:38:43;10.30;99.90
17715;DHT22;8977;50.902;4.314;2023-02-12T08:41:12;10.30;99.90
17715;DHT22;8977;50.902;4.314;2023-02-12T08:43:39;10.30;99.90
17715;DHT22;8977;50.902;4.314;2023-02-12T08:46:09;10.30;99.90
17715;DHT22;8977;50.902;4.314;2023-02-12T08:48:36;10.30;99.90
17715;DHT22;8977;50.902;4.314;2023-02-12T08:51:06;10.30;99.90
17715;DHT22;8977;50.902;4.314;2023-02-12T08:53:33;10.30;99.90
17715;DHT22;8977;50.902;4.314;2023-02-12T08:56:00;10.30;99.90
17715;DHT22;8977;50.902;4.314;2023-02-12T08:58:27;10.30;99.90
17715;DHT22;8977;50.902;4.314;2023-02-12T09:00:53;10.40;99.90
17715;DHT22;8977;50.902;4.314;2023-02-12T09:03:22;10.40;99.90
17715;DHT22;8977;50.902;4.314;2023-02-12T09:05:49;10.40;99.90
17715;DHT22;8977;50.902;4.314;2023-02-12T09:08:16;10.40;99.90
17715;DHT22;8977;50.902;4.314;2023-02-12T09:10:43;10.40;99.90
17715;DHT22;8977;50.902;4.314;2023-02-12T09:13:11;10.40;99.90
17715;DHT22;8977;50.902;4.314;2023-02-12T09:15:39;10.40;99.90
17715;DHT22;8977;50.902;4.314;2023-02-12T09:18:06;10.40;99.90
17715;DHT22;8977;50.902;4.314;2023-02-12T09:20:36;10.40;99.90
17715;DHT22;8977;50.902;4.314;2023-02-12T09:23:03;10.40;99.90
17715;DHT22;8977;50.902;4.314;2023-02-12T09:25:30;10.50;99.90
17715;DHT22;8977;50.902;4.314;2023-02-12T09:27:58;10.50;99.90
17715;DHT22;8977;50.902;4.314;2023-02-12T09:30:25;10.50;99.90
17715;DHT22;8977;50.902;4.314;2023-02-12T09:32:52;10.60;99.90
17715;DHT22;8977;50.902;4.314;2023-02-12T09:35:20;10.50;99.90
17715;DHT22;8977;50.902;4.314;2023-02-12T09:37:48;10.50;99.90
17715;DHT22;8977;50.902;4.314;2023-02-12T09:40:19;10.50;99.90
17715;DHT22;8977;50.902;4.314;2023-02-12T09:42:59;10.50;99.90
17715;DHT22;8977;50.902;4.314;2023-02-12T09:45:32;10.50;99.90
17715;DHT22;8977;50.902;4.314;2023-02-12T09:48:08;10.50;99.90
17715;DHT22;8977;50.902;4.314;2023-02-12T09:50:44;10.50;99.90
17715;DHT22;8977;50.902;4.314;2023-02-12T09:53:17;10.60;99.90
17715;DHT22;8977;50.902;4.314;2023-02-12T09:55:45;10.60;99.90
17715;DHT22;8977;50.902;4.314;2023-02-12T09:58:14;10.60;99.90
17715;DHT22;8977;50.902;4.314;2023-02-12T10:00:42;10.60;99.90
17715;DHT22;8977;50.902;4.314;2023-02-12T10:03:12;10.80;99.90
17715;DHT22;8977;50.902;4.314;2023-02-12T10:05:43;10.80;99.90
17715;DHT22;8977;50.902;4.314;2023-02-12T10:08:26;10.80;99.90
17715;DHT22;8977;50.902;4.314;2023-02-12T10:11:05;10.70;99.90
17715;DHT22;8977;50.902;4.314;2023-02-12T10:13:46;10.70;99.90
17715;DHT22;8977;50.902;4.314;2023-02-12T10:16:24;10.70;99.90
17715;DHT22;8977;50.902;4.314;2023-02-12T10:19:07;10.80;99.90
17715;DHT22;8977;50.902;4.314;2023-02-12T10:21:46;10.70;99.90
17715;DHT22;8977;50.902;4.314;2023-02-12T10:24:31;10.70;99.90
17715;DHT22;8977;50.902;4.314;2023-02-12T10:27:04;10.70;99.90
17715;DHT22;8977;50.902;4.314;2023-02-12T10:29:38;10.70;99.90
17715;DHT22;8977;50.902;4.314;2023-02-12T10:32:12;10.70;99.90
17715;DHT22;8977;50.902;4.314;2023-02-12T10:34:42;10.80;99.90
17715;DHT22;8977;50.902;4.314;2023-02-12T10:37:13;10.80;99.90
17715;DHT22;8977;50.902;4.314;2023-02-12T10:39:48;10.80;99.90
17715;DHT22;8977;50.902;4.314;2023-02-12T10:42:18;10.80;99.90
17715;DHT22;8977;50.902;4.314;2023-02-12T10:44:47;10.70;99.90
17715;DHT22;8977;50.902;4.314;2023-02-12T10:47:17;10.80;99.90
17715;DHT22;8977;50.902;4.314;2023-02-12T10:49:46;10.70;99.90
17715;DHT22;8977;50.902;4.314;2023-02-12T10:52:20;10.70;99.90
17715;DHT22;8977;50.902;4.314;2023-02-12T10:54:56;10.70;99.90
17715;DHT22;8977;50.902;4.314;2023-02-12T10:57:25;10.80;99.90
17715;DHT22;8977;50.902;4.314;2023-02-12T10:59:55;10.80;99.90
17715;DHT22;8977;50.902;4.314;2023-02-12T11:02:25;10.80;99.90
17715;DHT22;8977;50.902;4.314;2023-02-12T11:04:54;10.80;99.90
17715;DHT22;8977;50.902;4.314;2023-02-12T11:07:22;10.80;99.90
17715;DHT22;8977;50.902;4.314;2023-02-12T11:09:51;10.80;99.90
17715;DHT22;8977;50.902;4.314;2023-02-12T11:12:35;10.80;99.90
17715;DHT22;8977;50.902;4.314;2023-02-12T11:15:05;10.80;99.90
17715;DHT22;8977;50.902;4.314;2023-02-12T11:17:36;10.70;99.90
17715;DHT22;8977;50.902;4.314;2023-02-12T11:20:18;10.70;99.90
17715;DHT22;8977;50.902;4.314;2023-02-12T11:22:53;10.80;99.90
17715;DHT22;8977;50.902;4.314;2023-02-12T11:25:23;10.80;99.90
17715;DHT22;8977;50.902;4.314;2023-02-12T11:28:13;10.80;99.90
17715;DHT22;8977;50.902;4.314;2023-02-12T11:30:52;10.90;99.90
17715;DHT22;8977;50.902;4.314;2023-02-12T11:33:29;10.80;99.90
17715;DHT22;8977;50.902;4.314;2023-02-12T11:35:58;10.90;99.90
17715;DHT22;8977;50.902;4.314;2023-02-12T11:38:32;10.90;99.90
17715;DHT22;8977;50.902;4.314;2023-02-12T11:41:03;10.90;99.90
17715;DHT22;8977;50.902;4.314;2023-02-12T11:43:33;10.90;99.90
17715;DHT22;8977;50.902;4.314;2023-02-12T11:46:02;10.90;99.90
17715;DHT22;8977;50.902;4.314;2023-02-12T11:48:32;10.90;99.90
17715;DHT22;8977;50.902;4.314;2023-02-12T11:51:01;10.90;99.90
17715;DHT22;8977;50.902;4.314;2023-02-12T11:53:31;10.90;99.90
17715;DHT22;8977;50.902;4.314;2023-02-12T11:56:00;10.90;99.90
17715;DHT22;8977;50.902;4.314;2023-02-12T11:58:29;10.90;99.90
17715;DHT22;8977;50.902;4.314;2023-02-12T12:01:03;10.90;99.90
17715;DHT22;8977;50.902;4.314;2023-02-12T12:03:36;10.90;99.90
17715;DHT22;8977;50.902;4.314;2023-02-12T12:06:08;10.90;99.90
17715;DHT22;8977;50.902;4.314;2023-02-12T12:08:42;10.90;99.90
17715;DHT22;8977;50.902;4.314;2023-02-12T12:11:13;11.00;99.90
17715;DHT22;8977;50.902;4.314;2023-02-12T12:13:46;10.90;99.90
17715;DHT22;8977;50.902;4.314;2023-02-12T12:16:19;10.90;99.90
17715;DHT22;8977;50.902;4.314;2023-02-12T12:19:13;11.00;99.90
17715;DHT22;8977;50.902;4.314;2023-02-12T12:22:03;11.00;99.90
17715;DHT22;8977;50.902;4.314;2023-02-12T12:24:38;10.90;99.90
17715;DHT22;8977;50.902;4.314;2023-02-12T12:27:14;11.00;99.90
17715;DHT22;8977;50.902;4.314;2023-02-12T12:30:15;11.00;99.90
17715;DHT22;8977;50.902;4.314;2023-02-12T12:32:46;11.00;99.90
17715;DHT22;8977;50.902;4.314;2023-02-12T12:35:17;11.00;99.90
17715;DHT22;8977;50.902;4.314;2023-02-12T12:37:51;11.00;99.90
17715;DHT22;8977;50.902;4.314;2023-02-12T12:40:33;11.00;99.90
17715;DHT22;8977;50.902;4.314;2023-02-12T12:43:08;11.00;99.90
17715;DHT22;8977;50.902;4.314;2023-02-12T12:45:55;11.00;99.90
17715;DHT22;8977;50.902;4.314;2023-02-12T12:48:36;11.10;99.90
17715;DHT22;8977;50.902;4.314;2023-02-12T12:51:18;11.00;99.90
17715;DHT22;8977;50.902;4.314;2023-02-12T12:53:58;11.10;99.90
17715;DHT22;8977;50.902;4.314;2023-02-12T12:56:44;11.10;99.90
17715;DHT22;8977;50.902;4.314;2023-02-12T12:59:26;11.10;99.90
17715;DHT22;8977;50.902;4.314;2023-02-12T13:02:32;11.10;99.90
17715;DHT22;8977;50.902;4.314;2023-02-12T13:08:20;11.10;99.90
17715;DHT22;8977;50.902;4.314;2023-02-12T13:10:56;11.10;99.90
17715;DHT22;8977;50.902;4.314;2023-02-12T13:13:31;11.10;99.90
17715;DHT22;8977;50.902;4.314;2023-02-12T13:16:04;11.10;99.90
17715;DHT22;8977;50.902;4.314;2023-02-12T13:18:42;11.10;99.90
17715;DHT22;8977;50.902;4.314;2023-02-12T13:21:16;11.10;99.90
17715;DHT22;8977;50.902;4.314;2023-02-12T13:23:49;11.10;99.90
17715;DHT22;8977;50.902;4.314;2023-02-12T13:26:22;11.10;99.90
17715;DHT22;8977;50.902;4.314;2023-02-12T13:28:54;11.10;99.90
17715;DHT22;8977;50.902;4.314;2023-02-12T13:31:25;11.10;99.90
17715;DHT22;8977;50.902;4.314;2023-02-12T13:33:55;11.10;99.90
17715;DHT22;8977;50.902;4.314;2023-02-12T13:36:25;11.00;99.90
17715;DHT22;8977;50.902;4.314;2023-02-12T13:38:55;11.00;99.90
17715;DHT22;8977;50.902;4.314;2023-02-12T13:41:24;11.00;99.90
17715;DHT22;8977;50.902;4.314;2023-02-12T13:44:06;11.10;99.90
17715;DHT22;8977;50.902;4.314;2023-02-12T13:46:44;11.10;99.90
17715;DHT22;8977;50.902;4.314;2023-02-12T13:49:21;11.10;99.90
17715;DHT22;8977;50.902;4.314;2023-02-12T13:51:55;11.00;99.90
17715;DHT22;8977;50.902;4.314;2023-02-12T13:54:36;11.10;99.90
17715;DHT22;8977;50.902;4.314;2023-02-12T13:57:08;11.10;99.90
17715;DHT22;8977;50.902;4.314;2023-02-12T14:05:26;11.10;99.90
17715;DHT22;8977;50.902;4.314;2023-02-12T14:07:57;11.10;99.90
17715;DHT22;8977;50.902;4.314;2023-02-12T14:10:28;11.10;99.90
17715;DHT22;8977;50.902;4.314;2023-02-12T14:12:58;11.10;99.90
17715;DHT22;8977;50.902;4.314;2023-02-12T14:15:37;11.00;99.90
17715;DHT22;8977;50.902;4.314;2023-02-12T14:27:34;11.10;99.90
17715;DHT22;8977;50.902;4.314;2023-02-12T14:30:27;11.00;99.90
17715;DHT22;8977;50.902;4.314;2023-02-12T14:33:18;11.00;99.90
17715;DHT22;8977;50.902;4.314;2023-02-12T14:35:46;11.10;99.90
17715;DHT22;8977;50.902;4.314;2023-02-12T14:41:31;11.10;99.90
17715;DHT22;8977;50.902;4.314;2023-02-12T14:49:58;11.30;99.90
17715;DHT22;8977;50.902;4.314;2023-02-12T14:52:30;11.20;99.90
17715;DHT22;8977;50.902;4.314;2023-02-12T14:54:59;11.20;99.90
17715;DHT22;8977;50.902;4.314;2023-02-12T14:57:29;11.20;99.90
17715;DHT22;8977;50.902;4.314;2023-02-12T14:59:58;11.20;99.90
17715;DHT22;8977;50.902;4.314;2023-02-12T15:02:30;11.10;99.90
17715;DHT22;8977;50.902;4.314;2023-02-12T15:05:02;11.10;99.90
17715;DHT22;8977;50.902;4.314;2023-02-12T15:07:34;11.10;99.90
17715;DHT22;8977;50.902;4.314;2023-02-12T15:10:07;11.10;99.90
17715;DHT22;8977;50.902;4.314;2023-02-12T15:12:41;11.10;99.90
17715;DHT22;8977;50.902;4.314;2023-02-12T15:15:14;11.10;99.90
17715;DHT22;8977;50.902;4.314;2023-02-12T15:17:53;11.10;99.90
17715;DHT22;8977;50.902;4.314;2023-02-12T15:20:24;11.10;99.90
17715;DHT22;8977;50.902;4.314;2023-02-12T15:22:56;11.10;99.90
17715;DHT22;8977;50.902;4.314;2023-02-12T15:25:24;11.10;99.90
17715;DHT22;8977;50.902;4.314;2023-02-12T15:27:54;11.10;99.90
17715;DHT22;8977;50.902;4.314;2023-02-12T15:30:24;11.10;99.90
17715;DHT22;8977;50.902;4.314;2023-02-12T15:32:53;11.10;99.90
17715;DHT22;8977;50.902;4.314;2023-02-12T15:35:24;11.10;99.90
17715;DHT22;8977;50.902;4.314;2023-02-12T15:37:52;11.10;99.90
17715;DHT22;8977;50.902;4.314;2023-02-12T15:40:19;11.10;99.90
17715;DHT22;8977;50.902;4.314;2023-02-12T15:42:53;11.10;99.90
17715;DHT22;8977;50.902;4.314;2023-02-12T15:45:22;11.10;99.90
17715;DHT22;8977;50.902;4.314;2023-02-12T15:48:01;11.10;99.90
17715;DHT22;8977;50.902;4.314;2023-02-12T15:50:31;11.10;99.90
17715;DHT22;8977;50.902;4.314;2023-02-12T15:52:58;11.00;99.90
17715;DHT22;8977;50.902;4.314;2023-02-12T15:55:27;11.10;99.90
17715;DHT22;8977;50.902;4.314;2023-02-12T15:57:57;11.00;99.90
17715;DHT22;8977;50.902;4.314;2023-02-12T16:00:28;11.00;99.90
17715;DHT22;8977;50.902;4.314;2023-02-12T16:02:57;11.00;99.90
17715;DHT22;8977;50.902;4.314;2023-02-12T16:05:25;11.00;99.90
17715;DHT22;8977;50.902;4.314;2023-02-12T16:07:52;11.10;99.90
17715;DHT22;8977;50.902;4.314;2023-02-12T16:10:20;11.00;99.90
17715;DHT22;8977;50.902;4.314;2023-02-12T16:12:48;11.00;99.90
17715;DHT22;8977;50.902;4.314;2023-02-12T16:15:27;11.00;99.90
17715;DHT22;8977;50.902;4.314;2023-02-12T16:17:55;11.00;99.90
17715;DHT22;8977;50.902;4.314;2023-02-12T16:20:26;11.00;99.90
17715;DHT22;8977;50.902;4.314;2023-02-12T16:22:56;11.00;99.90
17715;DHT22;8977;50.902;4.314;2023-02-12T16:25:26;11.00;99.90
17715;DHT22;8977;50.902;4.314;2023-02-12T16:27:57;11.00;99.90
17715;DHT22;8977;50.902;4.314;2023-02-12T16:30:28;11.00;99.90
17715;DHT22;8977;50.902;4.314;2023-02-12T16:32:56;11.00;99.90
17715;DHT22;8977;50.902;4.314;2023-02-12T16:35:28;11.00;99.90
17715;DHT22;8977;50.902;4.314;2023-02-12T16:38:01;10.90;99.90
17715;DHT22;8977;50.902;4.314;2023-02-12T16:40:32;11.00;99.90
17715;DHT22;8977;50.902;4.314;2023-02-12T16:43:02;11.00;99.90
17715;DHT22;8977;50.902;4.314;2023-02-12T16:45:34;11.00;99.90
17715;DHT22;8977;50.902;4.314;2023-02-12T16:48:07;11.00;99.90